sensor_id;sensor_type;location;lat;lon;timestamp;P1;durP1;ratioP1;P2;durP2;ratioP2
52272;SDS011;38227;50.942;4.016;2023-05-29T00:00:36;9.30;;;3.78;;
52272;SDS011;38227;50.942;4.016;2023-05-29T00:03:07;5.95;;;3.53;;
52272;SDS011;38227;50.942;4.016;2023-05-29T00:05:37;7.80;;;3.72;;
52272;SDS011;38227;50.942;4.016;2023-05-29T00:08:08;10.80;;;4.32;;
52272;SDS011;38227;50.942;4.016;2023-05-29T00:10:41;8.88;;;3.80;;
52272;SDS011;38227;50.942;4.016;2023-05-29T00:13:18;6.72;;;3.72;;
52272;SDS011;38227;50.942;4.016;2023-05-29T00:15:46;11.85;;;3.80;;
52272;SDS011;38227;50.942;4.016;2023-05-29T00:18:15;5.53;;;3.40;;
52272;SDS011;38227;50.942;4.016;2023-05-29T00:20:46;7.55;;;4.03;;
52272;SDS011;38227;50.942;4.016;2023-05-29T00:23:16;7.45;;;3.90;;
52272;SDS011;38227;50.942;4.016;2023-05-29T00:25:53;8.13;;;3.47;;
52272;SDS011;38227;50.942;4.016;2023-05-29T00:28:22;7.25;;;3.83;;
52272;SDS011;38227;50.942;4.016;2023-05-29T00:30:59;9.68;;;3.92;;
52272;SDS011;38227;50.942;4.016;2023-05-29T00:33:27;7.78;;;3.78;;
52272;SDS011;38227;50.942;4.016;2023-05-29T00:35:55;7.62;;;3.90;;
52272;SDS011;38227;50.942;4.016;2023-05-29T00:38:25;10.10;;;4.62;;
52272;SDS011;38227;50.942;4.016;2023-05-29T00:40:56;8.00;;;3.83;;
52272;SDS011;38227;50.942;4.016;2023-05-29T00:43:25;8.70;;;3.80;;
52272;SDS011;38227;50.942;4.016;2023-05-29T00:45:57;7.80;;;3.62;;
52272;SDS011;38227;50.942;4.016;2023-05-29T00:48:27;5.65;;;3.15;;
52272;SDS011;38227;50.942;4.016;2023-05-29T00:50:57;8.05;;;3.53;;
52272;SDS011;38227;50.942;4.016;2023-05-29T00:53:25;7.80;;;4.53;;
52272;SDS011;38227;50.942;4.016;2023-05-29T00:55:55;7.57;;;3.87;;
52272;SDS011;38227;50.942;4.016;2023-05-29T00:58:32;8.15;;;3.45;;
52272;SDS011;38227;50.942;4.016;2023-05-29T01:01:03;7.62;;;3.75;;
52272;SDS011;38227;50.942;4.016;2023-05-29T01:03:33;8.48;;;3.67;;
52272;SDS011;38227;50.942;4.016;2023-05-29T01:06:03;5.70;;;3.55;;
52272;SDS011;38227;50.942;4.016;2023-05-29T01:08:35;8.32;;;4.50;;
52272;SDS011;38227;50.942;4.016;2023-05-29T01:11:08;9.40;;;3.70;;
52272;SDS011;38227;50.942;4.016;2023-05-29T01:13:57;7.80;;;4.03;;
52272;SDS011;38227;50.942;4.016;2023-05-29T01:16:35;8.18;;;3.90;;
52272;SDS011;38227;50.942;4.016;2023-05-29T01:29:00;7.93;;;3.65;;
52272;SDS011;38227;50.942;4.016;2023-05-29T01:31:31;5.90;;;3.28;;
52272;SDS011;38227;50.942;4.016;2023-05-29T01:34:00;8.32;;;3.28;;
52272;SDS011;38227;50.942;4.016;2023-05-29T01:36:31;7.62;;;3.62;;
52272;SDS011;38227;50.942;4.016;2023-05-29T01:39:02;5.75;;;3.65;;
52272;SDS011;38227;50.942;4.016;2023-05-29T01:41:30;7.72;;;3.92;;
52272;SDS011;38227;50.942;4.016;2023-05-29T01:44:03;8.20;;;3.30;;
52272;SDS011;38227;50.942;4.016;2023-05-29T01:46:35;6.35;;;2.90;;
52272;SDS011;38227;50.942;4.016;2023-05-29T01:49:05;6.10;;;3.45;;
52272;SDS011;38227;50.942;4.016;2023-05-29T01:51:33;8.27;;;2.92;;
52272;SDS011;38227;50.942;4.016;2023-05-29T01:54:02;4.97;;;2.62;;
52272;SDS011;38227;50.942;4.016;2023-05-29T01:56:42;7.40;;;3.33;;
52272;SDS011;38227;50.942;4.016;2023-05-29T01:59:12;6.57;;;3.12;;
52272;SDS011;38227;50.942;4.016;2023-05-29T02:01:40;7.15;;;2.85;;
52272;SDS011;38227;50.942;4.016;2023-05-29T02:04:08;7.32;;;2.80;;
52272;SDS011;38227;50.942;4.016;2023-05-29T02:06:39;9.63;;;2.92;;
52272;SDS011;38227;50.942;4.016;2023-05-29T02:09:09;6.53;;;2.35;;
52272;SDS011;38227;50.942;4.016;2023-05-29T02:11:39;6.45;;;2.80;;
52272;SDS011;38227;50.942;4.016;2023-05-29T02:14:10;9.95;;;2.47;;
52272;SDS011;38227;50.942;4.016;2023-05-29T02:16:40;5.65;;;2.40;;
52272;SDS011;38227;50.942;4.016;2023-05-29T02:19:11;9.73;;;2.30;;
52272;SDS011;38227;50.942;4.016;2023-05-29T02:21:40;7.22;;;2.50;;
52272;SDS011;38227;50.942;4.016;2023-05-29T02:24:21;6.65;;;2.40;;
52272;SDS011;38227;50.942;4.016;2023-05-29T02:26:50;7.57;;;2.00;;
52272;SDS011;38227;50.942;4.016;2023-05-29T02:29:29;4.55;;;2.28;;
52272;SDS011;38227;50.942;4.016;2023-05-29T02:32:05;4.68;;;2.03;;
52272;SDS011;38227;50.942;4.016;2023-05-29T02:34:35;5.12;;;1.98;;
52272;SDS011;38227;50.942;4.016;2023-05-29T02:37:12;4.05;;;1.90;;
52272;SDS011;38227;50.942;4.016;2023-05-29T02:39:40;3.97;;;1.58;;
52272;SDS011;38227;50.942;4.016;2023-05-29T02:42:08;5.28;;;1.92;;
52272;SDS011;38227;50.942;4.016;2023-05-29T02:44:36;4.68;;;1.87;;
52272;SDS011;38227;50.942;4.016;2023-05-29T02:47:06;7.68;;;2.42;;
52272;SDS011;38227;50.942;4.016;2023-05-29T02:49:36;6.50;;;2.00;;
52272;SDS011;38227;50.942;4.016;2023-05-29T02:52:05;5.20;;;1.70;;
52272;SDS011;38227;50.942;4.016;2023-05-29T02:54:34;5.50;;;2.05;;
52272;SDS011;38227;50.942;4.016;2023-05-29T02:57:06;3.25;;;1.65;;
52272;SDS011;38227;50.942;4.016;2023-05-29T02:59:38;4.68;;;1.77;;
52272;SDS011;38227;50.942;4.016;2023-05-29T03:02:10;6.65;;;1.67;;
52272;SDS011;38227;50.942;4.016;2023-05-29T03:04:40;3.28;;;1.60;;
52272;SDS011;38227;50.942;4.016;2023-05-29T03:07:17;4.53;;;1.80;;
52272;SDS011;38227;50.942;4.016;2023-05-29T03:09:46;5.22;;;1.70;;
52272;SDS011;38227;50.942;4.016;2023-05-29T03:12:17;4.97;;;1.42;;
52272;SDS011;38227;50.942;4.016;2023-05-29T03:14:45;7.10;;;1.55;;
52272;SDS011;38227;50.942;4.016;2023-05-29T03:17:14;1.60;;;1.17;;
52272;SDS011;38227;50.942;4.016;2023-05-29T03:19:51;10.93;;;1.85;;
52272;SDS011;38227;50.942;4.016;2023-05-29T03:22:20;8.80;;;1.75;;
52272;SDS011;38227;50.942;4.016;2023-05-29T03:24:56;6.00;;;1.65;;
52272;SDS011;38227;50.942;4.016;2023-05-29T03:27:24;4.05;;;1.75;;
52272;SDS011;38227;50.942;4.016;2023-05-29T03:29:55;7.60;;;1.80;;
52272;SDS011;38227;50.942;4.016;2023-05-29T03:32:34;3.95;;;1.62;;
52272;SDS011;38227;50.942;4.016;2023-05-29T03:35:03;6.37;;;1.62;;
52272;SDS011;38227;50.942;4.016;2023-05-29T03:37:43;7.05;;;1.55;;
52272;SDS011;38227;50.942;4.016;2023-05-29T03:40:11;4.80;;;1.58;;
52272;SDS011;38227;50.942;4.016;2023-05-29T03:42:40;6.47;;;1.65;;
52272;SDS011;38227;50.942;4.016;2023-05-29T03:45:08;6.35;;;1.70;;
52272;SDS011;38227;50.942;4.016;2023-05-29T03:47:39;4.22;;;1.55;;
52272;SDS011;38227;50.942;4.016;2023-05-29T03:50:11;4.50;;;1.52;;
52272;SDS011;38227;50.942;4.016;2023-05-29T03:52:42;3.33;;;1.10;;
52272;SDS011;38227;50.942;4.016;2023-05-29T03:55:12;2.25;;;1.10;;
52272;SDS011;38227;50.942;4.016;2023-05-29T03:57:40;7.53;;;1.50;;
52272;SDS011;38227;50.942;4.016;2023-05-29T04:00:09;8.13;;;1.80;;
52272;SDS011;38227;50.942;4.016;2023-05-29T04:02:39;3.83;;;1.33;;
52272;SDS011;38227;50.942;4.016;2023-05-29T04:05:10;6.05;;;1.52;;
52272;SDS011;38227;50.942;4.016;2023-05-29T04:07:41;4.15;;;1.35;;
52272;SDS011;38227;50.942;4.016;2023-05-29T04:10:09;8.13;;;1.80;;
52272;SDS011;38227;50.942;4.016;2023-05-29T04:12:37;4.43;;;1.35;;
52272;SDS011;38227;50.942;4.016;2023-05-29T04:15:05;5.62;;;1.58;;
52272;SDS011;38227;50.942;4.016;2023-05-29T04:17:36;6.68;;;1.33;;
52272;SDS011;38227;50.942;4.016;2023-05-29T04:20:05;2.42;;;1.02;;
52272;SDS011;38227;50.942;4.016;2023-05-29T04:22:35;4.50;;;1.20;;
52272;SDS011;38227;50.942;4.016;2023-05-29T04:25:03;6.80;;;1.73;;
52272;SDS011;38227;50.942;4.016;2023-05-29T04:27:32;4.85;;;1.27;;
52272;SDS011;38227;50.942;4.016;2023-05-29T04:30:04;5.45;;;1.48;;
52272;SDS011;38227;50.942;4.016;2023-05-29T04:32:34;4.12;;;1.05;;
52272;SDS011;38227;50.942;4.016;2023-05-29T04:35:13;6.57;;;1.40;;
52272;SDS011;38227;50.942;4.016;2023-05-29T04:37:43;4.80;;;1.20;;
52272;SDS011;38227;50.942;4.016;2023-05-29T04:40:11;4.72;;;1.02;;
52272;SDS011;38227;50.942;4.016;2023-05-29T04:42:42;4.15;;;1.48;;
52272;SDS011;38227;50.942;4.016;2023-05-29T04:45:11;2.95;;;1.23;;
52272;SDS011;38227;50.942;4.016;2023-05-29T04:47:46;3.65;;;1.35;;
52272;SDS011;38227;50.942;4.016;2023-05-29T04:50:19;3.42;;;1.20;;
52272;SDS011;38227;50.942;4.016;2023-05-29T04:52:52;7.40;;;1.52;;
52272;SDS011;38227;50.942;4.016;2023-05-29T04:55:22;3.37;;;0.82;;
52272;SDS011;38227;50.942;4.016;2023-05-29T04:58:00;4.05;;;1.45;;
52272;SDS011;38227;50.942;4.016;2023-05-29T05:00:33;8.27;;;1.25;;
52272;SDS011;38227;50.942;4.016;2023-05-29T05:03:09;4.10;;;0.82;;
52272;SDS011;38227;50.942;4.016;2023-05-29T05:05:42;3.55;;;1.10;;
52272;SDS011;38227;50.942;4.016;2023-05-29T05:08:14;5.82;;;1.45;;
52272;SDS011;38227;50.942;4.016;2023-05-29T05:10:43;6.10;;;1.37;;
52272;SDS011;38227;50.942;4.016;2023-05-29T05:13:14;4.90;;;1.52;;
52272;SDS011;38227;50.942;4.016;2023-05-29T05:15:43;3.58;;;1.08;;
52272;SDS011;38227;50.942;4.016;2023-05-29T05:18:14;5.15;;;1.40;;
52272;SDS011;38227;50.942;4.016;2023-05-29T05:20:43;4.62;;;1.70;;
52272;SDS011;38227;50.942;4.016;2023-05-29T05:23:14;5.93;;;1.42;;
52272;SDS011;38227;50.942;4.016;2023-05-29T05:25:44;4.07;;;0.98;;
52272;SDS011;38227;50.942;4.016;2023-05-29T05:28:15;4.28;;;1.15;;
52272;SDS011;38227;50.942;4.016;2023-05-29T05:30:44;3.10;;;0.98;;
52272;SDS011;38227;50.942;4.016;2023-05-29T05:33:16;2.05;;;0.77;;
52272;SDS011;38227;50.942;4.016;2023-05-29T05:35:45;2.12;;;1.08;;
52272;SDS011;38227;50.942;4.016;2023-05-29T05:38:16;4.75;;;0.77;;
52272;SDS011;38227;50.942;4.016;2023-05-29T05:40:45;4.32;;;1.30;;
52272;SDS011;38227;50.942;4.016;2023-05-29T05:43:17;3.03;;;1.12;;
52272;SDS011;38227;50.942;4.016;2023-05-29T05:45:54;4.93;;;0.90;;
52272;SDS011;38227;50.942;4.016;2023-05-29T05:48:24;4.72;;;1.20;;
52272;SDS011;38227;50.942;4.016;2023-05-29T05:50:55;6.32;;;1.20;;
52272;SDS011;38227;50.942;4.016;2023-05-29T05:53:23;4.28;;;1.20;;
52272;SDS011;38227;50.942;4.016;2023-05-29T05:55:53;4.47;;;1.30;;
52272;SDS011;38227;50.942;4.016;2023-05-29T05:58:34;2.47;;;1.00;;
52272;SDS011;38227;50.942;4.016;2023-05-29T06:01:04;3.37;;;1.00;;
52272;SDS011;38227;50.942;4.016;2023-05-29T06:03:35;2.15;;;0.95;;
52272;SDS011;38227;50.942;4.016;2023-05-29T06:06:05;3.30;;;1.12;;
52272;SDS011;38227;50.942;4.016;2023-05-29T06:08:34;2.40;;;0.70;;
52272;SDS011;38227;50.942;4.016;2023-05-29T06:11:11;4.57;;;0.90;;
52272;SDS011;38227;50.942;4.016;2023-05-29T06:13:41;3.20;;;0.90;;
52272;SDS011;38227;50.942;4.016;2023-05-29T06:16:13;1.48;;;0.60;;
52272;SDS011;38227;50.942;4.016;2023-05-29T06:18:42;2.55;;;1.12;;
52272;SDS011;38227;50.942;4.016;2023-05-29T06:21:12;3.12;;;0.80;;
52272;SDS011;38227;50.942;4.016;2023-05-29T06:23:40;4.60;;;1.00;;
52272;SDS011;38227;50.942;4.016;2023-05-29T06:26:09;2.70;;;0.73;;
52272;SDS011;38227;50.942;4.016;2023-05-29T06:28:41;3.17;;;0.98;;
52272;SDS011;38227;50.942;4.016;2023-05-29T06:31:11;2.28;;;0.75;;
52272;SDS011;38227;50.942;4.016;2023-05-29T06:33:43;3.37;;;0.93;;
52272;SDS011;38227;50.942;4.016;2023-05-29T06:36:12;2.97;;;1.12;;
52272;SDS011;38227;50.942;4.016;2023-05-29T06:38:49;3.42;;;1.15;;
52272;SDS011;38227;50.942;4.016;2023-05-29T06:41:18;2.03;;;0.60;;
52272;SDS011;38227;50.942;4.016;2023-05-29T06:43:50;2.57;;;1.00;;
52272;SDS011;38227;50.942;4.016;2023-05-29T06:46:20;3.03;;;0.90;;
52272;SDS011;38227;50.942;4.016;2023-05-29T06:48:59;3.15;;;1.08;;
52272;SDS011;38227;50.942;4.016;2023-05-29T06:51:36;0.80;;;0.75;;
52272;SDS011;38227;50.942;4.016;2023-05-29T06:54:05;2.03;;;0.90;;
52272;SDS011;38227;50.942;4.016;2023-05-29T06:56:42;2.12;;;1.05;;
52272;SDS011;38227;50.942;4.016;2023-05-29T06:59:10;1.58;;;0.68;;
52272;SDS011;38227;50.942;4.016;2023-05-29T07:01:39;1.92;;;0.88;;
52272;SDS011;38227;50.942;4.016;2023-05-29T07:04:16;2.92;;;0.80;;
52272;SDS011;38227;50.942;4.016;2023-05-29T07:06:46;1.55;;;0.70;;
52272;SDS011;38227;50.942;4.016;2023-05-29T07:09:20;3.15;;;0.90;;
52272;SDS011;38227;50.942;4.016;2023-05-29T07:11:50;2.47;;;0.80;;
52272;SDS011;38227;50.942;4.016;2023-05-29T07:14:19;2.75;;;0.77;;
52272;SDS011;38227;50.942;4.016;2023-05-29T07:16:50;1.40;;;0.68;;
52272;SDS011;38227;50.942;4.016;2023-05-29T07:19:19;3.72;;;1.05;;
52272;SDS011;38227;50.942;4.016;2023-05-29T07:21:51;2.30;;;0.77;;
52272;SDS011;38227;50.942;4.016;2023-05-29T07:24:21;1.50;;;0.80;;
52272;SDS011;38227;50.942;4.016;2023-05-29T07:26:51;3.67;;;0.80;;
52272;SDS011;38227;50.942;4.016;2023-05-29T07:29:27;4.15;;;0.82;;
52272;SDS011;38227;50.942;4.016;2023-05-29T07:31:57;3.22;;;0.80;;
52272;SDS011;38227;50.942;4.016;2023-05-29T07:34:27;3.53;;;0.80;;
52272;SDS011;38227;50.942;4.016;2023-05-29T07:36:57;2.62;;;0.90;;
52272;SDS011;38227;50.942;4.016;2023-05-29T07:39:28;4.07;;;1.00;;
52272;SDS011;38227;50.942;4.016;2023-05-29T07:42:05;4.10;;;1.00;;
52272;SDS011;38227;50.942;4.016;2023-05-29T07:44:33;1.62;;;0.88;;
52272;SDS011;38227;50.942;4.016;2023-05-29T07:47:03;1.83;;;0.80;;
52272;SDS011;38227;50.942;4.016;2023-05-29T07:49:36;2.15;;;0.75;;
52272;SDS011;38227;50.942;4.016;2023-05-29T07:52:08;1.62;;;0.90;;
52272;SDS011;38227;50.942;4.016;2023-05-29T07:54:40;2.87;;;0.88;;
52272;SDS011;38227;50.942;4.016;2023-05-29T07:57:09;0.88;;;0.60;;
52272;SDS011;38227;50.942;4.016;2023-05-29T07:59:46;3.22;;;1.10;;
52272;SDS011;38227;50.942;4.016;2023-05-29T08:02:15;1.00;;;0.55;;
52272;SDS011;38227;50.942;4.016;2023-05-29T08:04:49;3.95;;;1.00;;
52272;SDS011;38227;50.942;4.016;2023-05-29T08:07:21;2.60;;;0.95;;
52272;SDS011;38227;50.942;4.016;2023-05-29T08:09:53;1.17;;;0.80;;
52272;SDS011;38227;50.942;4.016;2023-05-29T08:12:23;3.15;;;0.75;;
52272;SDS011;38227;50.942;4.016;2023-05-29T08:15:10;2.92;;;0.93;;
52272;SDS011;38227;50.942;4.016;2023-05-29T08:17:39;2.47;;;0.82;;
52272;SDS011;38227;50.942;4.016;2023-05-29T08:20:10;1.02;;;0.50;;
52272;SDS011;38227;50.942;4.016;2023-05-29T08:22:40;1.50;;;1.00;;
52272;SDS011;38227;50.942;4.016;2023-05-29T08:25:10;4.43;;;0.80;;
52272;SDS011;38227;50.942;4.016;2023-05-29T08:27:40;1.60;;;0.65;;
52272;SDS011;38227;50.942;4.016;2023-05-29T08:30:16;1.52;;;1.00;;
52272;SDS011;38227;50.942;4.016;2023-05-29T08:32:45;1.02;;;0.73;;
52272;SDS011;38227;50.942;4.016;2023-05-29T08:35:23;3.40;;;1.05;;
52272;SDS011;38227;50.942;4.016;2023-05-29T08:37:52;3.65;;;0.80;;
52272;SDS011;38227;50.942;4.016;2023-05-29T08:40:24;1.67;;;0.82;;
52272;SDS011;38227;50.942;4.016;2023-05-29T08:43:02;2.15;;;0.88;;
52272;SDS011;38227;50.942;4.016;2023-05-29T08:45:47;0.98;;;0.60;;
52272;SDS011;38227;50.942;4.016;2023-05-29T08:48:28;1.45;;;0.90;;
52272;SDS011;38227;50.942;4.016;2023-05-29T08:50:58;4.55;;;0.80;;
52272;SDS011;38227;50.942;4.016;2023-05-29T08:53:33;4.07;;;0.90;;
52272;SDS011;38227;50.942;4.016;2023-05-29T08:56:11;1.77;;;0.70;;
52272;SDS011;38227;50.942;4.016;2023-05-29T08:58:42;2.25;;;0.68;;
52272;SDS011;38227;50.942;4.016;2023-05-29T09:01:15;1.33;;;0.75;;
52272;SDS011;38227;50.942;4.016;2023-05-29T09:03:51;1.17;;;0.75;;
52272;SDS011;38227;50.942;4.016;2023-05-29T09:06:21;2.00;;;0.77;;
52272;SDS011;38227;50.942;4.016;2023-05-29T09:08:51;2.10;;;1.15;;
52272;SDS011;38227;50.942;4.016;2023-05-29T09:11:20;2.05;;;0.95;;
52272;SDS011;38227;50.942;4.016;2023-05-29T09:13:57;2.08;;;0.77;;
52272;SDS011;38227;50.942;4.016;2023-05-29T09:16:26;2.25;;;0.65;;
52272;SDS011;38227;50.942;4.016;2023-05-29T09:19:09;2.87;;;0.80;;
52272;SDS011;38227;50.942;4.016;2023-05-29T09:21:39;3.80;;;0.88;;
52272;SDS011;38227;50.942;4.016;2023-05-29T09:24:07;1.30;;;0.77;;
52272;SDS011;38227;50.942;4.016;2023-05-29T09:26:37;2.12;;;0.90;;
52272;SDS011;38227;50.942;4.016;2023-05-29T09:29:15;2.90;;;0.80;;
52272;SDS011;38227;50.942;4.016;2023-05-29T09:31:46;3.33;;;0.90;;
52272;SDS011;38227;50.942;4.016;2023-05-29T09:34:15;2.45;;;0.80;;
52272;SDS011;38227;50.942;4.016;2023-05-29T09:36:47;1.62;;;0.62;;
52272;SDS011;38227;50.942;4.016;2023-05-29T09:39:16;3.05;;;0.70;;
52272;SDS011;38227;50.942;4.016;2023-05-29T09:41:45;2.80;;;0.93;;
52272;SDS011;38227;50.942;4.016;2023-05-29T09:44:16;3.67;;;0.98;;
52272;SDS011;38227;50.942;4.016;2023-05-29T09:46:48;3.03;;;0.85;;
52272;SDS011;38227;50.942;4.016;2023-05-29T09:49:17;2.55;;;1.20;;
52272;SDS011;38227;50.942;4.016;2023-05-29T09:51:53;2.12;;;1.08;;
52272;SDS011;38227;50.942;4.016;2023-05-29T09:54:29;3.05;;;0.98;;
52272;SDS011;38227;50.942;4.016;2023-05-29T09:56:59;1.98;;;0.80;;
52272;SDS011;38227;50.942;4.016;2023-05-29T09:59:31;2.35;;;0.68;;
52272;SDS011;38227;50.942;4.016;2023-05-29T10:02:03;1.15;;;0.70;;
52272;SDS011;38227;50.942;4.016;2023-05-29T10:04:43;1.37;;;0.70;;
52272;SDS011;38227;50.942;4.016;2023-05-29T10:07:22;2.22;;;1.00;;
52272;SDS011;38227;50.942;4.016;2023-05-29T10:10:04;2.50;;;0.82;;
52272;SDS011;38227;50.942;4.016;2023-05-29T10:12:34;3.03;;;1.02;;
52272;SDS011;38227;50.942;4.016;2023-05-29T10:15:06;4.47;;;1.10;;
52272;SDS011;38227;50.942;4.016;2023-05-29T10:17:39;1.55;;;0.75;;
52272;SDS011;38227;50.942;4.016;2023-05-29T10:20:21;1.67;;;0.77;;
52272;SDS011;38227;50.942;4.016;2023-05-29T10:22:53;3.85;;;1.35;;
52272;SDS011;38227;50.942;4.016;2023-05-29T10:25:27;2.85;;;1.08;;
52272;SDS011;38227;50.942;4.016;2023-05-29T10:28:06;1.67;;;0.80;;
52272;SDS011;38227;50.942;4.016;2023-05-29T10:30:47;2.25;;;0.98;;
52272;SDS011;38227;50.942;4.016;2023-05-29T10:33:37;2.47;;;1.00;;
52272;SDS011;38227;50.942;4.016;2023-05-29T10:36:38;1.92;;;0.95;;
52272;SDS011;38227;50.942;4.016;2023-05-29T10:39:13;1.98;;;0.98;;
52272;SDS011;38227;50.942;4.016;2023-05-29T10:41:49;1.50;;;0.90;;
52272;SDS011;38227;50.942;4.016;2023-05-29T10:47:25;2.65;;;0.70;;
52272;SDS011;38227;50.942;4.016;2023-05-29T10:49:53;2.42;;;1.08;;
52272;SDS011;38227;50.942;4.016;2023-05-29T10:52:34;2.17;;;1.00;;
52272;SDS011;38227;50.942;4.016;2023-05-29T10:55:12;3.05;;;0.90;;
52272;SDS011;38227;50.942;4.016;2023-05-29T10:57:48;2.92;;;0.77;;
52272;SDS011;38227;50.942;4.016;2023-05-29T11:00:24;2.75;;;1.00;;
52272;SDS011;38227;50.942;4.016;2023-05-29T11:02:53;2.30;;;0.80;;
52272;SDS011;38227;50.942;4.016;2023-05-29T11:05:23;2.33;;;1.15;;
52272;SDS011;38227;50.942;4.016;2023-05-29T11:07:57;2.50;;;0.95;;
52272;SDS011;38227;50.942;4.016;2023-05-29T11:10:43;2.55;;;0.62;;
52272;SDS011;38227;50.942;4.016;2023-05-29T11:13:34;1.50;;;1.02;;
52272;SDS011;38227;50.942;4.016;2023-05-29T11:19:19;4.70;;;1.10;;
52272;SDS011;38227;50.942;4.016;2023-05-29T11:24:41;5.00;;;1.77;;
52272;SDS011;38227;50.942;4.016;2023-05-29T11:27:15;2.00;;;1.00;;
52272;SDS011;38227;50.942;4.016;2023-05-29T11:29:48;3.08;;;1.02;;
52272;SDS011;38227;50.942;4.016;2023-05-29T11:32:20;1.92;;;0.70;;
52272;SDS011;38227;50.942;4.016;2023-05-29T11:34:53;0.80;;;0.68;;
52272;SDS011;38227;50.942;4.016;2023-05-29T11:37:24;2.62;;;0.82;;
52272;SDS011;38227;50.942;4.016;2023-05-29T11:39:54;3.08;;;0.88;;
52272;SDS011;38227;50.942;4.016;2023-05-29T11:42:34;3.72;;;1.08;;
52272;SDS011;38227;50.942;4.016;2023-05-29T11:45:10;3.70;;;1.27;;
52272;SDS011;38227;50.942;4.016;2023-05-29T11:47:59;1.92;;;0.88;;
52272;SDS011;38227;50.942;4.016;2023-05-29T11:50:32;1.45;;;0.80;;
52272;SDS011;38227;50.942;4.016;2023-05-29T11:53:01;4.45;;;0.88;;
52272;SDS011;38227;50.942;4.016;2023-05-29T11:55:38;3.47;;;0.75;;
52272;SDS011;38227;50.942;4.016;2023-05-29T11:58:06;1.52;;;0.70;;
52272;SDS011;38227;50.942;4.016;2023-05-29T12:00:35;2.40;;;1.00;;
52272;SDS011;38227;50.942;4.016;2023-05-29T12:03:04;1.23;;;0.73;;
52272;SDS011;38227;50.942;4.016;2023-05-29T12:05:32;1.87;;;0.80;;
52272;SDS011;38227;50.942;4.016;2023-05-29T12:08:21;2.12;;;0.80;;
52272;SDS011;38227;50.942;4.016;2023-05-29T12:10:50;3.17;;;1.05;;
52272;SDS011;38227;50.942;4.016;2023-05-29T12:13:21;2.58;;;1.12;;
52272;SDS011;38227;50.942;4.016;2023-05-29T12:15:52;3.92;;;1.02;;
52272;SDS011;38227;50.942;4.016;2023-05-29T12:18:23;2.65;;;0.80;;
52272;SDS011;38227;50.942;4.016;2023-05-29T12:20:56;1.25;;;0.70;;
52272;SDS011;38227;50.942;4.016;2023-05-29T12:23:27;2.62;;;1.10;;
52272;SDS011;38227;50.942;4.016;2023-05-29T12:25:59;3.80;;;0.90;;
52272;SDS011;38227;50.942;4.016;2023-05-29T12:28:31;3.40;;;1.05;;
52272;SDS011;38227;50.942;4.016;2023-05-29T12:31:05;2.60;;;0.70;;
52272;SDS011;38227;50.942;4.016;2023-05-29T12:33:38;3.05;;;0.95;;
52272;SDS011;38227;50.942;4.016;2023-05-29T12:36:21;2.75;;;0.98;;
52272;SDS011;38227;50.942;4.016;2023-05-29T12:38:55;2.95;;;0.90;;
52272;SDS011;38227;50.942;4.016;2023-05-29T12:41:25;2.60;;;0.80;;
52272;SDS011;38227;50.942;4.016;2023-05-29T12:43:57;3.97;;;0.80;;
52272;SDS011;38227;50.942;4.016;2023-05-29T12:46:44;1.87;;;0.90;;
52272;SDS011;38227;50.942;4.016;2023-05-29T12:49:15;1.58;;;0.88;;
52272;SDS011;38227;50.942;4.016;2023-05-29T12:51:46;1.52;;;0.77;;
52272;SDS011;38227;50.942;4.016;2023-05-29T12:54:20;2.65;;;1.20;;
52272;SDS011;38227;50.942;4.016;2023-05-29T12:56:50;1.80;;;1.02;;
52272;SDS011;38227;50.942;4.016;2023-05-29T12:59:19;1.80;;;1.00;;
52272;SDS011;38227;50.942;4.016;2023-05-29T13:01:51;3.72;;;1.10;;
52272;SDS011;38227;50.942;4.016;2023-05-29T13:04:18;4.53;;;1.23;;
52272;SDS011;38227;50.942;4.016;2023-05-29T13:06:49;1.75;;;1.08;;
52272;SDS011;38227;50.942;4.016;2023-05-29T13:09:20;1.83;;;1.05;;
52272;SDS011;38227;50.942;4.016;2023-05-29T13:11:49;2.87;;;0.98;;
52272;SDS011;38227;50.942;4.016;2023-05-29T13:14:19;1.52;;;0.90;;
52272;SDS011;38227;50.942;4.016;2023-05-29T13:16:48;3.60;;;1.20;;
52272;SDS011;38227;50.942;4.016;2023-05-29T13:19:25;4.68;;;1.20;;
52272;SDS011;38227;50.942;4.016;2023-05-29T13:21:55;3.87;;;1.10;;
52272;SDS011;38227;50.942;4.016;2023-05-29T13:24:32;3.17;;;1.40;;
52272;SDS011;38227;50.942;4.016;2023-05-29T13:27:01;4.12;;;1.10;;
52272;SDS011;38227;50.942;4.016;2023-05-29T13:29:33;4.53;;;1.10;;
52272;SDS011;38227;50.942;4.016;2023-05-29T13:32:12;3.33;;;1.25;;
52272;SDS011;38227;50.942;4.016;2023-05-29T13:34:49;2.60;;;1.25;;
52272;SDS011;38227;50.942;4.016;2023-05-29T13:37:18;2.45;;;0.85;;
52272;SDS011;38227;50.942;4.016;2023-05-29T13:39:55;3.55;;;1.00;;
52272;SDS011;38227;50.942;4.016;2023-05-29T13:42:25;3.15;;;0.98;;
52272;SDS011;38227;50.942;4.016;2023-05-29T13:44:56;1.98;;;1.10;;
52272;SDS011;38227;50.942;4.016;2023-05-29T13:47:24;2.97;;;0.93;;
52272;SDS011;38227;50.942;4.016;2023-05-29T13:49:55;3.70;;;1.30;;
52272;SDS011;38227;50.942;4.016;2023-05-29T13:52:27;2.37;;;0.88;;
52272;SDS011;38227;50.942;4.016;2023-05-29T13:54:59;1.40;;;0.90;;
52272;SDS011;38227;50.942;4.016;2023-05-29T13:57:33;1.87;;;1.27;;
52272;SDS011;38227;50.942;4.016;2023-05-29T14:00:05;1.80;;;1.00;;
52272;SDS011;38227;50.942;4.016;2023-05-29T14:02:36;4.53;;;1.67;;
52272;SDS011;38227;50.942;4.016;2023-05-29T14:05:04;2.37;;;1.05;;
52272;SDS011;38227;50.942;4.016;2023-05-29T14:07:34;1.98;;;0.93;;
52272;SDS011;38227;50.942;4.016;2023-05-29T14:10:05;3.00;;;1.35;;
52272;SDS011;38227;50.942;4.016;2023-05-29T14:12:36;3.33;;;1.10;;
52272;SDS011;38227;50.942;4.016;2023-05-29T14:15:08;1.48;;;1.17;;
52272;SDS011;38227;50.942;4.016;2023-05-29T14:17:47;2.12;;;0.90;;
52272;SDS011;38227;50.942;4.016;2023-05-29T14:20:20;2.12;;;1.10;;
52272;SDS011;38227;50.942;4.016;2023-05-29T14:23:00;4.07;;;1.15;;
52272;SDS011;38227;50.942;4.016;2023-05-29T14:25:39;3.03;;;1.05;;
52272;SDS011;38227;50.942;4.016;2023-05-29T14:28:18;1.58;;;1.05;;
52272;SDS011;38227;50.942;4.016;2023-05-29T14:30:51;2.05;;;1.30;;
52272;SDS011;38227;50.942;4.016;2023-05-29T14:33:31;3.05;;;1.00;;
52272;SDS011;38227;50.942;4.016;2023-05-29T14:36:03;1.77;;;1.00;;
52272;SDS011;38227;50.942;4.016;2023-05-29T14:38:37;2.92;;;1.10;;
52272;SDS011;38227;50.942;4.016;2023-05-29T14:41:09;2.90;;;1.20;;
52272;SDS011;38227;50.942;4.016;2023-05-29T14:43:54;1.80;;;1.15;;
52272;SDS011;38227;50.942;4.016;2023-05-29T14:46:25;3.65;;;1.20;;
52272;SDS011;38227;50.942;4.016;2023-05-29T14:48:56;2.87;;;1.15;;
52272;SDS011;38227;50.942;4.016;2023-05-29T14:51:28;1.30;;;1.02;;
52272;SDS011;38227;50.942;4.016;2023-05-29T14:53:59;3.00;;;1.10;;
52272;SDS011;38227;50.942;4.016;2023-05-29T14:56:29;3.60;;;1.27;;
52272;SDS011;38227;50.942;4.016;2023-05-29T14:58:59;1.08;;;0.75;;
52272;SDS011;38227;50.942;4.016;2023-05-29T15:01:29;4.05;;;0.70;;
52272;SDS011;38227;50.942;4.016;2023-05-29T15:04:06;2.72;;;0.90;;
52272;SDS011;38227;50.942;4.016;2023-05-29T15:06:36;4.07;;;0.85;;
52272;SDS011;38227;50.942;4.016;2023-05-29T15:09:06;3.15;;;0.98;;
52272;SDS011;38227;50.942;4.016;2023-05-29T15:11:37;3.10;;;0.88;;
52272;SDS011;38227;50.942;4.016;2023-05-29T15:14:08;3.22;;;0.85;;
52272;SDS011;38227;50.942;4.016;2023-05-29T15:16:38;1.25;;;0.75;;
52272;SDS011;38227;50.942;4.016;2023-05-29T15:19:08;2.12;;;0.85;;
52272;SDS011;38227;50.942;4.016;2023-05-29T15:21:38;2.25;;;1.15;;
52272;SDS011;38227;50.942;4.016;2023-05-29T15:24:15;2.17;;;1.00;;
52272;SDS011;38227;50.942;4.016;2023-05-29T15:26:45;2.60;;;0.85;;
52272;SDS011;38227;50.942;4.016;2023-05-29T15:29:16;1.12;;;0.82;;
52272;SDS011;38227;50.942;4.016;2023-05-29T15:31:47;2.45;;;0.80;;
52272;SDS011;38227;50.942;4.016;2023-05-29T15:34:16;1.50;;;0.62;;
52272;SDS011;38227;50.942;4.016;2023-05-29T15:36:53;2.30;;;0.70;;